Time;durP1;ratioP1;P1;durP2;ratioP2;P2;SDS_P1;SDS_P2;PMS_P1;PMS_P2;Temp;Humidity;BMP_temperature;BMP_pressure;BME280_temperature;BME280_humidity;BME280_pressure;Samples;Min_cycle;Max_cycle;Signal;HPM_P1;HPM_P2
2024/01/21 00:01:35;;;;;;;11.70;6.35;;;1.40;99.90;;;;;;5053145;28;20041;-88
2024/01/21 00:04:01;;;;;;;9.02;6.10;;;1.40;99.90;;;;;;5054045;28;20032;-87
2024/01/21 00:06:27;;;;;;;9.40;6.32;;;1.50;99.90;;;;;;5052973;28;20412;-87
2024/01/21 00:08:52;;;;;;;10.07;6.18;;;1.40;99.90;;;;;;5050740;28;20035;-88
2024/01/21 00:11:18;;;;;;;8.40;6.40;;;1.50;99.90;;;;;;5038177;28;20033;-86
2024/01/21 00:13:53;;;;;;;10.40;5.70;;;1.40;99.90;;;;;;5047726;28;20029;-88
2024/01/21 00:16:24;;;;;;;8.65;5.82;;;2.30;99.90;;;;;;5053630;28;20025;-87
2024/01/21 00:19:05;;;;;;;7.30;5.57;;;2.10;99.90;;;;;;5050543;28;20502;-87
2024/01/21 00:21:31;;;;;;;8.18;6.00;;;1.40;99.90;;;;;;5059322;28;20033;-87
2024/01/21 00:23:56;;;;;;;7.75;5.20;;;1.50;99.90;;;;;;5064519;28;20040;-88
2024/01/21 00:26:22;;;;;;;8.90;5.00;;;1.40;99.90;;;;;;5067751;28;20021;-87
2024/01/21 00:28:47;;;;;;;7.63;4.85;;;1.50;99.90;;;;;;5057776;28;20029;-88
2024/01/21 00:31:13;;;;;;;8.93;5.05;;;1.60;99.90;;;;;;5059836;28;20060;-87
2024/01/21 00:33:39;;;;;;;8.25;5.43;;;1.60;99.90;;;;;;5072828;28;20041;-87
2024/01/21 00:36:05;;;;;;;7.57;5.32;;;1.60;99.90;;;;;;5060858;28;20032;-88
2024/01/21 00:38:31;;;;;;;8.68;5.00;;;1.70;99.90;;;;;;5059192;28;20080;-87
2024/01/21 00:40:57;;;;;;;6.03;4.88;;;1.60;99.90;;;;;;5049095;28;20115;-86
2024/01/21 00:43:35;;;;;;;6.32;4.10;;;1.70;99.90;;;;;;5056246;28;20087;-87
2024/01/21 00:46:04;;;;;;;7.05;4.47;;;1.50;99.90;;;;;;5059565;28;20508;-86
2024/01/21 00:48:51;;;;;;;7.38;5.30;;;1.60;99.90;;;;;;5056938;28;20029;-86
2024/01/21 00:51:16;;;;;;;6.45;4.20;;;1.60;99.90;;;;;;5055674;28;20496;-86
2024/01/21 00:53:41;;;;;;;7.78;5.38;;;2.10;99.90;;;;;;5055360;28;20123;-85
2024/01/21 00:56:07;;;;;;;7.75;4.43;;;1.60;99.90;;;;;;5057078;28;20388;-87
2024/01/21 00:58:36;;;;;;;7.60;4.57;;;1.60;99.90;;;;;;5056722;28;20021;-87
2024/01/21 01:01:01;;;;;;;5.85;3.95;;;1.50;99.90;;;;;;5056103;28;20171;-87
2024/01/21 01:03:27;;;;;;;6.53;4.40;;;1.50;99.90;;;;;;5057553;28;20123;-87
2024/01/21 01:05:52;;;;;;;4.85;4.15;;;1.60;99.90;;;;;;5056990;28;20028;-87
2024/01/21 01:08:18;;;;;;;6.18;4.22;;;2.70;99.90;;;;;;5057090;28;20029;-87
2024/01/21 01:10:44;;;;;;;10.23;3.95;;;1.40;99.90;;;;;;5056038;28;20025;-87
2024/01/21 01:13:09;;;;;;;4.45;3.30;;;1.30;99.90;;;;;;5056772;28;20431;-87
2024/01/21 01:15:35;;;;;;;5.47;3.83;;;1.50;99.90;;;;;;5052964;28;20112;-88
2024/01/21 01:18:01;;;;;;;5.57;3.90;;;1.40;99.90;;;;;;5052205;28;20036;-87
2024/01/21 01:20:26;;;;;;;5.50;3.67;;;1.40;99.90;;;;;;5035364;28;20021;-86
2024/01/21 01:22:52;;;;;;;4.85;3.55;;;1.30;99.90;;;;;;5033066;28;20071;-86
2024/01/21 01:25:27;;;;;;;6.82;3.88;;;1.30;99.90;;;;;;5034811;28;20104;-85
2024/01/21 01:27:52;;;;;;;5.80;4.20;;;0.80;99.90;;;;;;5035306;28;20064;-87
2024/01/21 01:30:27;;;;;;;6.50;3.42;;;2.10;99.90;;;;;;5034565;28;20060;-86
2024/01/21 01:32:52;;;;;;;5.53;3.92;;;2.30;99.90;;;;;;5034969;28;20034;-85
2024/01/21 01:35:26;;;;;;;6.32;3.90;;;1.30;99.90;;;;;;5035056;28;20029;-88
2024/01/21 01:37:51;;;;;;;5.90;3.72;;;1.80;99.90;;;;;;5034759;28;20025;-87
2024/01/21 01:40:20;;;;;;;5.07;3.55;;;1.30;99.90;;;;;;5047812;28;20017;-87
2024/01/21 01:43:02;;;;;;;5.75;3.58;;;1.30;99.90;;;;;;5039936;28;20049;-87
2024/01/21 01:45:28;;;;;;;5.88;3.63;;;1.10;99.90;;;;;;5051086;28;20041;-87
2024/01/21 01:47:54;;;;;;;7.75;4.53;;;1.30;99.90;;;;;;5053951;28;20537;-88
2024/01/21 01:50:21;;;;;;;6.88;3.70;;;1.30;99.90;;;;;;5054053;28;20141;-87
2024/01/21 01:52:47;;;;;;;7.30;3.70;;;1.30;99.90;;;;;;5056410;28;20052;-87
2024/01/21 01:55:13;;;;;;;5.47;3.90;;;1.30;99.90;;;;;;5049173;28;20104;-87
2024/01/21 01:57:50;;;;;;;6.13;4.20;;;1.30;99.90;;;;;;5052949;28;20636;-86
2024/01/21 02:00:15;;;;;;;5.75;3.72;;;1.20;99.90;;;;;;5053598;28;20025;-87
2024/01/21 02:02:41;;;;;;;6.22;4.55;;;1.30;99.90;;;;;;5052927;28;20033;-87
2024/01/21 02:05:07;;;;;;;6.10;3.50;;;1.30;99.90;;;;;;5053825;28;20017;-87
2024/01/21 02:07:33;;;;;;;5.57;4.10;;;1.30;99.90;;;;;;5052528;28;20063;-87
2024/01/21 02:10:14;;;;;;;5.63;3.85;;;1.30;99.90;;;;;;5054570;28;20065;-87
2024/01/21 02:12:43;;;;;;;4.95;3.53;;;1.30;99.90;;;;;;5052741;28;20029;-88
2024/01/21 02:15:11;;;;;;;5.18;3.67;;;1.30;99.90;;;;;;5053183;28;20029;-87
2024/01/21 02:17:37;;;;;;;5.45;3.80;;;1.20;99.90;;;;;;5052480;28;20044;-87
2024/01/21 02:20:04;;;;;;;7.82;3.88;;;1.30;99.90;;;;;;5051345;28;20393;-87
2024/01/21 02:22:32;;;;;;;5.13;3.10;;;1.20;99.90;;;;;;5053630;28;20041;-87
2024/01/21 02:24:57;;;;;;;6.07;3.58;;;1.20;99.90;;;;;;5051552;28;20409;-87
2024/01/21 02:27:23;;;;;;;6.20;4.00;;;1.20;99.90;;;;;;5052553;28;20028;-87
2024/01/21 02:29:49;;;;;;;5.95;3.63;;;1.20;99.90;;;;;;5050443;28;20546;-86
2024/01/21 02:32:15;;;;;;;5.18;3.05;;;1.10;99.90;;;;;;5052182;28;20128;-88
2024/01/21 02:34:41;;;;;;;4.75;3.00;;;1.20;99.90;;;;;;5051371;28;20108;-87
2024/01/21 02:37:06;;;;;;;7.57;3.85;;;1.20;99.90;;;;;;5053590;28;20044;-87
2024/01/21 02:39:32;;;;;;;7.10;4.35;;;1.20;99.90;;;;;;5052336;28;20447;-87
2024/01/21 02:41:58;;;;;;;6.93;3.80;;;1.20;99.90;;;;;;5049130;28;20033;-87
2024/01/21 02:44:23;;;;;;;4.90;3.53;;;1.30;99.90;;;;;;5052154;28;20032;-86
2024/01/21 02:46:49;;;;;;;5.63;4.10;;;1.20;99.90;;;;;;5052963;28;20084;-86
2024/01/21 02:49:16;;;;;;;4.43;3.40;;;1.20;99.90;;;;;;5054718;28;20072;-87
2024/01/21 02:51:42;;;;;;;6.60;4.38;;;1.50;99.90;;;;;;5052766;28;20071;-87
2024/01/21 02:54:07;;;;;;;5.35;3.90;;;1.30;99.90;;;;;;5050407;28;20381;-87
2024/01/21 02:56:33;;;;;;;6.25;3.53;;;1.30;99.90;;;;;;5052704;28;20035;-86
2024/01/21 02:58:59;;;;;;;5.65;3.92;;;1.30;99.90;;;;;;5053157;28;20147;-86
2024/01/21 03:01:24;;;;;;;8.13;3.95;;;2.20;99.90;;;;;;5050506;28;20453;-86
2024/01/21 03:03:50;;;;;;;6.35;4.00;;;1.40;99.90;;;;;;5051831;28;20044;-86
2024/01/21 03:06:16;;;;;;;6.95;3.78;;;1.30;99.90;;;;;;5052059;28;20021;-87
2024/01/21 03:08:42;;;;;;;5.90;3.75;;;1.30;99.90;;;;;;5051673;28;20123;-88
2024/01/21 03:11:08;;;;;;;5.28;3.75;;;1.10;99.90;;;;;;5044415;28;20117;-87
2024/01/21 03:13:33;;;;;;;4.70;3.70;;;1.30;99.90;;;;;;5032571;28;20025;-87
2024/01/21 03:16:00;;;;;;;6.43;3.40;;;1.40;99.90;;;;;;5047837;28;20075;-87
2024/01/21 03:18:25;;;;;;;5.65;3.55;;;1.30;99.90;;;;;;5052108;28;20021;-88
2024/01/21 03:20:51;;;;;;;6.53;3.55;;;2.00;99.90;;;;;;5040635;28;20385;-87
2024/01/21 03:23:18;;;;;;;7.20;3.92;;;1.40;99.90;;;;;;5033707;28;20045;-88
2024/01/21 03:25:44;;;;;;;5.22;3.58;;;1.40;99.90;;;;;;5041568;28;20017;-87
2024/01/21 03:28:10;;;;;;;5.72;3.58;;;1.30;99.90;;;;;;5052930;28;20047;-87
2024/01/21 03:30:35;;;;;;;4.88;3.33;;;1.40;99.90;;;;;;5053937;28;20024;-85
2024/01/21 03:33:01;;;;;;;5.45;3.70;;;1.30;99.90;;;;;;5057000;28;20059;-86
2024/01/21 03:35:26;;;;;;;5.30;3.47;;;1.40;99.90;;;;;;5052099;28;20028;-87
2024/01/21 03:38:04;;;;;;;5.50;4.18;;;1.40;99.90;;;;;;5031740;28;20021;-86
2024/01/21 03:40:30;;;;;;;5.47;3.90;;;1.80;99.90;;;;;;5039439;28;20025;-87
2024/01/21 03:42:55;;;;;;;5.25;3.67;;;1.40;99.90;;;;;;5052406;28;20037;-86
2024/01/21 03:45:21;;;;;;;4.57;3.22;;;1.50;99.90;;;;;;5054188;28;20037;-87
2024/01/21 03:47:46;;;;;;;6.82;4.00;;;1.50;99.90;;;;;;5051971;28;20132;-86
2024/01/21 03:50:12;;;;;;;7.47;4.43;;;1.50;99.90;;;;;;5052582;28;20099;-86
2024/01/21 03:52:38;;;;;;;4.65;3.80;;;1.50;99.90;;;;;;5052961;28;20021;-86
2024/01/21 03:55:04;;;;;;;6.10;3.78;;;1.50;99.90;;;;;;5053107;28;20021;-86
2024/01/21 03:57:30;;;;;;;6.57;3.90;;;1.50;99.90;;;;;;5049537;28;20031;-86
2024/01/21 03:59:55;;;;;;;5.32;4.20;;;1.40;99.90;;;;;;5050144;28;20028;-87
2024/01/21 04:02:25;;;;;;;6.78;3.88;;;1.50;99.90;;;;;;5052735;28;20036;-87
2024/01/21 04:04:53;;;;;;;8.88;4.53;;;2.40;99.90;;;;;;5051901;28;20044;-86
2024/01/21 04:07:18;;;;;;;8.88;3.95;;;1.50;99.90;;;;;;5053388;28;20040;-87
2024/01/21 04:09:44;;;;;;;4.82;4.22;;;1.60;99.90;;;;;;5058456;28;20025;-86
2024/01/21 04:12:24;;;;;;;6.50;4.30;;;1.50;99.90;;;;;;5051948;28;20098;-87
2024/01/21 04:14:49;;;;;;;7.55;4.25;;;1.60;99.90;;;;;;5055451;28;20029;-86
2024/01/21 04:17:15;;;;;;;5.65;3.72;;;2.50;99.90;;;;;;5052256;28;20484;-87
2024/01/21 04:19:49;;;;;;;6.57;3.83;;;1.60;99.90;;;;;;5061167;28;20032;-86
2024/01/21 04:22:18;;;;;;;7.15;4.22;;;2.50;99.90;;;;;;5066620;28;20040;-87
2024/01/21 04:24:45;;;;;;;9.15;4.05;;;1.50;99.90;;;;;;5051348;28;20029;-87
2024/01/21 04:27:23;;;;;;;5.65;3.95;;;1.50;99.90;;;;;;5058815;28;20081;-87
2024/01/21 04:29:49;;;;;;;6.22;3.95;;;1.40;99.90;;;;;;5065220;28;20033;-87
2024/01/21 04:32:23;;;;;;;6.45;4.03;;;2.60;99.90;;;;;;5059322;28;20083;-88
2024/01/21 04:34:49;;;;;;;6.07;4.07;;;1.60;99.90;;;;;;5053239;28;20025;-87
2024/01/21 04:37:14;;;;;;;5.47;4.43;;;1.70;99.90;;;;;;5052860;28;20025;-87
2024/01/21 04:39:40;;;;;;;6.50;4.28;;;1.70;99.90;;;;;;5051673;28;20536;-87
2024/01/21 04:42:06;;;;;;;10.50;4.53;;;1.80;99.90;;;;;;5036148;28;20033;-86
2024/01/21 04:44:31;;;;;;;6.93;4.47;;;1.80;99.90;;;;;;5032683;28;20061;-87
2024/01/21 04:47:23;;;;;;;6.47;4.15;;;1.80;99.90;;;;;;5048169;28;20049;-86
2024/01/21 04:49:48;;;;;;;7.78;4.25;;;1.80;99.90;;;;;;5051600;28;20056;-86
2024/01/21 04:52:14;;;;;;;7.47;4.82;;;1.90;99.90;;;;;;5051746;28;20040;-87
2024/01/21 04:54:51;;;;;;;7.90;4.47;;;1.90;99.90;;;;;;5051851;28;20053;-86
2024/01/21 04:57:17;;;;;;;7.40;4.30;;;0.80;99.90;;;;;;5053347;28;20017;-87
2024/01/21 04:59:42;;;;;;;6.75;4.70;;;1.80;99.90;;;;;;5053115;28;20036;-86
2024/01/21 05:02:08;;;;;;;6.65;4.15;;;2.00;99.90;;;;;;5052440;28;20025;-87
2024/01/21 05:04:33;;;;;;;5.78;4.43;;;3.00;99.90;;;;;;5052434;28;20108;-86
2024/01/21 05:06:59;;;;;;;6.82;4.72;;;2.00;99.90;;;;;;5050645;28;20408;-86
2024/01/21 05:09:24;;;;;;;5.60;3.92;;;2.00;99.90;;;;;;5051084;28;20055;-87
2024/01/21 05:11:50;;;;;;;5.35;4.20;;;2.10;99.90;;;;;;5049305;28;20029;-86
2024/01/21 05:14:15;;;;;;;9.23;4.00;;;2.10;99.90;;;;;;5048682;28;20532;-87
2024/01/21 05:16:41;;;;;;;5.20;3.97;;;2.10;99.90;;;;;;5053530;28;20156;-87
2024/01/21 05:19:07;;;;;;;10.05;4.82;;;2.20;99.90;;;;;;5055890;28;20495;-87
2024/01/21 05:21:48;;;;;;;9.15;4.25;;;2.10;99.90;;;;;;5055915;28;20112;-86
2024/01/21 05:24:13;;;;;;;5.93;4.45;;;2.10;99.90;;;;;;5055631;28;20437;-87
2024/01/21 05:26:43;;;;;;;8.93;4.78;;;2.00;99.90;;;;;;5054691;28;20040;-86
2024/01/21 05:29:09;;;;;;;5.68;4.38;;;2.20;99.90;;;;;;5053712;28;20041;-86
2024/01/21 05:31:34;;;;;;;6.85;4.88;;;2.20;99.90;;;;;;5052510;28;20021;-88
2024/01/21 05:34:00;;;;;;;7.03;3.78;;;2.20;99.90;;;;;;5056079;28;20274;-87
2024/01/21 05:36:25;;;;;;;7.53;4.80;;;2.10;99.90;;;;;;5055292;28;20025;-86
2024/01/21 05:38:51;;;;;;;9.13;4.63;;;2.20;99.90;;;;;;5057332;28;20492;-87
2024/01/21 05:41:17;;;;;;;6.75;4.68;;;2.20;99.90;;;;;;5044389;28;20355;-87
2024/01/21 05:43:45;;;;;;;6.20;4.15;;;2.20;99.90;;;;;;5035825;28;20097;-87
2024/01/21 05:46:11;;;;;;;7.03;4.80;;;3.30;99.90;;;;;;5038055;28;20041;-86
2024/01/21 05:48:49;;;;;;;7.38;4.78;;;2.20;99.90;;;;;;5038902;28;20029;-87
2024/01/21 05:51:14;;;;;;;9.73;4.68;;;3.20;99.90;;;;;;5040238;28;20021;-87
2024/01/21 05:53:41;;;;;;;6.97;4.80;;;2.10;99.90;;;;;;5038349;28;20032;-86
2024/01/21 05:56:07;;;;;;;6.18;4.10;;;3.20;99.90;;;;;;5054042;28;20034;-87
2024/01/21 05:58:34;;;;;;;5.90;4.72;;;2.20;99.90;;;;;;5036869;28;20079;-87
2024/01/21 06:01:06;;;;;;;7.10;5.60;;;2.20;99.90;;;;;;5048397;28;20480;-86
2024/01/21 06:03:43;;;;;;;6.57;4.68;;;3.30;99.90;;;;;;5039927;28;20366;-86
2024/01/21 06:06:09;;;;;;;8.40;4.65;;;2.10;99.90;;;;;;5054001;28;20031;-87
2024/01/21 06:08:34;;;;;;;9.02;4.25;;;2.20;99.90;;;;;;5053825;28;20021;-87
2024/01/21 06:11:00;;;;;;;7.80;4.97;;;2.30;99.90;;;;;;5053190;28;20053;-86
2024/01/21 06:13:26;;;;;;;5.28;4.15;;;2.30;99.90;;;;;;5053407;28;20025;-87
2024/01/21 06:15:51;;;;;;;7.00;4.95;;;2.30;99.90;;;;;;5054012;28;20488;-86
2024/01/21 06:18:17;;;;;;;7.15;5.30;;;3.00;99.90;;;;;;5053813;28;20025;-87
2024/01/21 06:20:42;;;;;;;6.13;4.68;;;2.30;99.90;;;;;;5053562;28;20319;-86
2024/01/21 06:23:08;;;;;;;7.18;4.70;;;2.40;99.90;;;;;;5054104;28;20033;-85
2024/01/21 06:25:33;;;;;;;6.78;5.40;;;2.40;99.90;;;;;;5050465;28;20021;-87
2024/01/21 06:27:59;;;;;;;7.07;4.32;;;2.30;99.90;;;;;;5051441;28;20087;-87
2024/01/21 06:30:24;;;;;;;7.15;5.18;;;2.30;99.90;;;;;;5053298;28;20040;-87
2024/01/21 06:32:50;;;;;;;6.85;4.90;;;2.30;99.90;;;;;;5046358;28;20457;-90
2024/01/21 06:35:16;;;;;;;5.47;4.18;;;2.40;99.90;;;;;;5050059;28;20029;-86
2024/01/21 06:37:41;;;;;;;10.93;4.97;;;2.40;99.90;;;;;;5052323;28;20461;-86
2024/01/21 06:40:08;;;;;;;7.18;4.93;;;2.40;99.90;;;;;;5050791;28;20459;-85
2024/01/21 06:42:33;;;;;;;6.50;4.80;;;2.40;99.90;;;;;;5051872;28;20595;-86
2024/01/21 06:45:02;;;;;;;8.95;4.32;;;2.40;99.90;;;;;;5052930;28;20120;-86
2024/01/21 06:47:27;;;;;;;9.13;5.40;;;2.40;99.90;;;;;;5048521;28;20048;-86
2024/01/21 06:49:53;;;;;;;6.93;4.93;;;2.40;99.90;;;;;;5051771;28;20587;-86
2024/01/21 06:52:18;;;;;;;7.25;5.28;;;2.40;99.90;;;;;;5051386;28;20492;-86
2024/01/21 06:54:44;;;;;;;6.07;4.72;;;2.50;99.90;;;;;;5051111;28;20025;-86
2024/01/21 06:57:12;;;;;;;5.75;4.72;;;2.40;99.90;;;;;;5036048;28;20035;-87
2024/01/21 06:59:38;;;;;;;8.13;5.10;;;3.30;99.90;;;;;;5039062;28;20025;-87
2024/01/21 07:02:04;;;;;;;6.20;4.68;;;2.40;99.90;;;;;;5050496;28;20479;-87
2024/01/21 07:04:30;;;;;;;6.82;4.88;;;2.40;99.90;;;;;;5054178;28;20037;-87
2024/01/21 07:06:55;;;;;;;10.07;4.95;;;2.40;99.90;;;;;;5053189;28;20393;-87
2024/01/21 07:09:21;;;;;;;7.45;4.68;;;2.40;99.90;;;;;;5052755;28;20053;-88
2024/01/21 07:11:46;;;;;;;5.72;4.50;;;2.40;99.90;;;;;;5048286;28;20035;-87
2024/01/21 07:14:18;;;;;;;9.07;5.60;;;2.40;99.90;;;;;;5051600;28;20025;-86
2024/01/21 07:16:47;;;;;;;8.20;5.60;;;3.20;99.90;;;;;;5047111;28;20021;-86
2024/01/21 07:19:13;;;;;;;7.97;4.78;;;3.40;99.90;;;;;;5050914;28;20116;-86
2024/01/21 07:21:48;;;;;;;7.30;5.50;;;2.40;99.90;;;;;;5050682;28;20113;-86
2024/01/21 07:24:13;;;;;;;6.95;5.28;;;2.30;99.90;;;;;;5050853;28;20039;-85
2024/01/21 07:26:39;;;;;;;12.50;5.22;;;2.30;99.90;;;;;;5050379;28;20413;-86
2024/01/21 07:29:04;;;;;;;7.82;5.05;;;2.40;99.90;;;;;;5051096;28;20061;-86
2024/01/21 07:31:30;;;;;;;8.95;4.95;;;2.40;99.90;;;;;;5048815;28;20029;-87
2024/01/21 07:33:55;;;;;;;7.53;4.18;;;2.40;99.90;;;;;;5050712;28;20099;-86
2024/01/21 07:36:21;;;;;;;9.38;4.97;;;2.40;99.90;;;;;;5050859;28;20480;-87
2024/01/21 07:38:52;;;;;;;5.30;4.70;;;2.40;99.90;;;;;;5050835;28;20137;-86
2024/01/21 07:41:18;;;;;;;6.30;4.82;;;2.40;99.90;;;;;;5048397;28;20033;-86
2024/01/21 07:43:43;;;;;;;8.13;5.00;;;2.40;99.90;;;;;;5051314;28;20043;-86
2024/01/21 07:46:09;;;;;;;9.82;5.65;;;2.50;99.90;;;;;;5051683;28;20053;-87
2024/01/21 07:48:44;;;;;;;10.32;5.18;;;2.50;99.90;;;;;;5052285;28;20079;-89
2024/01/21 07:51:09;;;;;;;8.10;5.43;;;3.30;99.90;;;;;;5050749;28;20032;-86
2024/01/21 07:53:47;;;;;;;6.68;4.85;;;2.40;99.90;;;;;;5051351;28;20020;-86
2024/01/21 07:56:13;;;;;;;9.80;5.22;;;2.20;99.90;;;;;;5045931;28;20028;-86
2024/01/21 07:58:39;;;;;;;7.90;4.60;;;2.50;99.90;;;;;;5051676;28;20033;-86
2024/01/21 08:01:11;;;;;;;7.38;4.93;;;2.50;99.90;;;;;;5052027;28;20381;-87
2024/01/21 08:03:57;;;;;;;7.07;4.68;;;2.50;99.90;;;;;;5050399;28;20052;-86
2024/01/21 08:06:23;;;;;;;6.60;4.68;;;2.50;99.90;;;;;;5051183;28;20068;-87
2024/01/21 08:08:50;;;;;;;7.30;4.78;;;2.50;99.90;;;;;;5051951;28;20064;-86
2024/01/21 08:11:21;;;;;;;7.40;5.38;;;2.50;99.90;;;;;;5045812;28;20029;-86
2024/01/21 08:13:53;;;;;;;6.13;5.20;;;3.40;99.90;;;;;;5047757;28;20020;-87
2024/01/21 08:16:18;;;;;;;6.82;5.20;;;2.40;99.90;;;;;;5050177;28;20469;-86
2024/01/21 08:18:44;;;;;;;10.68;5.15;;;2.60;99.90;;;;;;5052179;28;20021;-86
2024/01/21 08:21:09;;;;;;;6.13;4.47;;;2.50;99.90;;;;;;5051715;28;20029;-86
2024/01/21 08:23:35;;;;;;;5.78;5.10;;;2.50;99.90;;;;;;5049428;28;20048;-85
2024/01/21 08:26:18;;;;;;;8.10;5.90;;;2.60;99.90;;;;;;5049130;28;20052;-84
2024/01/21 08:28:44;;;;;;;9.85;5.80;;;2.60;99.90;;;;;;5048045;28;20033;-86
2024/01/21 08:31:18;;;;;;;8.40;5.07;;;2.60;99.90;;;;;;5050706;28;20029;-85
2024/01/21 08:33:44;;;;;;;5.82;5.05;;;2.70;99.90;;;;;;5051162;28;20485;-85
2024/01/21 08:36:09;;;;;;;7.43;6.05;;;2.70;99.90;;;;;;5049154;28;20025;-86
2024/01/21 08:38:51;;;;;;;6.70;5.63;;;2.60;99.90;;;;;;5049293;28;20033;-88
2024/01/21 08:41:16;;;;;;;7.18;5.43;;;2.60;99.90;;;;;;5048620;28;20029;-87
2024/01/21 08:43:42;;;;;;;7.13;4.97;;;2.70;99.90;;;;;;5051761;28;20040;-89
2024/01/21 08:46:11;;;;;;;6.32;4.68;;;2.70;99.90;;;;;;5048630;28;20041;-88
2024/01/21 08:48:36;;;;;;;7.68;5.20;;;2.80;99.90;;;;;;5048927;28;20036;-87
2024/01/21 08:51:02;;;;;;;8.82;6.35;;;2.80;99.90;;;;;;5050643;28;20032;-87
2024/01/21 08:53:28;;;;;;;9.95;5.53;;;2.80;99.90;;;;;;5049027;28;20029;-86
2024/01/21 08:55:53;;;;;;;9.77;5.53;;;2.90;99.90;;;;;;5035189;28;20457;-85
2024/01/21 08:58:19;;;;;;;7.35;6.10;;;2.90;99.90;;;;;;5044369;28;20044;-85
2024/01/21 09:00:44;;;;;;;11.23;5.28;;;2.90;99.90;;;;;;5050819;28;20166;-83
2024/01/21 09:03:12;;;;;;;8.20;5.60;;;2.90;99.90;;;;;;5049623;28;20144;-82
2024/01/21 09:05:37;;;;;;;6.97;5.07;;;3.00;99.90;;;;;;5052212;28;20017;-83
2024/01/21 09:08:03;;;;;;;9.23;5.78;;;3.00;99.90;;;;;;5052435;28;20052;-84
2024/01/21 09:10:29;;;;;;;10.05;5.50;;;3.00;99.90;;;;;;5052662;28;20033;-84
2024/01/21 09:12:54;;;;;;;6.43;5.30;;;3.00;99.90;;;;;;5050815;28;20033;-82
2024/01/21 09:15:21;;;;;;;8.52;6.20;;;3.00;99.90;;;;;;5051724;28;20032;-84
2024/01/21 09:17:53;;;;;;;7.22;5.78;;;3.10;99.90;;;;;;5049895;28;20048;-83
2024/01/21 09:20:19;;;;;;;7.95;5.50;;;3.10;99.90;;;;;;5052115;28;20025;-86
2024/01/21 09:22:45;;;;;;;7.32;5.60;;;4.20;99.90;;;;;;5052004;28;20047;-85
2024/01/21 09:25:10;;;;;;;7.68;5.70;;;3.20;99.90;;;;;;5051473;28;20029;-84
2024/01/21 09:27:36;;;;;;;9.95;5.95;;;3.30;99.90;;;;;;5054544;28;20052;-84
2024/01/21 09:30:04;;;;;;;8.85;6.38;;;3.20;99.90;;;;;;5055515;28;20377;-84
2024/01/21 09:32:31;;;;;;;9.60;5.85;;;3.30;99.90;;;;;;5054130;28;20061;-85
2024/01/21 09:34:57;;;;;;;9.23;6.18;;;3.30;99.90;;;;;;5054513;28;20021;-85
2024/01/21 09:37:22;;;;;;;6.47;5.78;;;3.30;99.90;;;;;;5052654;28;20029;-86
2024/01/21 09:39:48;;;;;;;14.35;5.97;;;3.40;99.90;;;;;;5051916;28;20095;-86
2024/01/21 09:42:17;;;;;;;7.88;5.35;;;3.40;99.90;;;;;;5048192;28;20041;-84
2024/01/21 09:44:43;;;;;;;8.10;5.28;;;3.40;99.90;;;;;;5074029;28;20384;-84
2024/01/21 09:47:10;;;;;;;9.98;5.80;;;3.40;99.90;;;;;;5054394;28;20049;-88
2024/01/21 09:49:37;;;;;;;8.52;5.93;;;3.40;99.90;;;;;;5043467;28;20082;-86
2024/01/21 09:52:22;;;;;;;8.45;6.53;;;3.40;99.90;;;;;;5054467;28;20144;-88
2024/01/21 09:54:50;;;;;;;7.25;5.78;;;3.50;99.90;;;;;;5053184;28;20067;-86
2024/01/21 09:57:16;;;;;;;8.07;6.38;;;3.40;99.90;;;;;;5051432;28;20021;-86
2024/01/21 09:59:41;;;;;;;6.78;5.88;;;4.40;99.90;;;;;;5043832;28;20041;-85
2024/01/21 10:02:16;;;;;;;8.48;6.40;;;3.60;99.90;;;;;;5051368;28;20504;-85
2024/01/21 10:05:01;;;;;;;9.95;6.93;;;3.60;99.90;;;;;;5052208;28;20032;-88
2024/01/21 10:07:31;;;;;;;7.60;6.15;;;3.70;99.90;;;;;;5052452;28;20512;-87
2024/01/21 10:09:57;;;;;;;9.23;5.88;;;3.70;99.90;;;;;;5050871;28;20036;-86
2024/01/21 10:12:26;;;;;;;7.45;6.20;;;3.60;99.90;;;;;;5049820;28;20279;-87
2024/01/21 10:14:52;;;;;;;11.57;6.45;;;3.80;99.90;;;;;;5051316;28;20033;-86
2024/01/21 10:17:33;;;;;;;11.10;7.00;;;3.80;99.90;;;;;;5047919;28;20036;-87
2024/01/21 10:20:00;;;;;;;20.08;7.20;;;3.60;99.90;;;;;;5051187;28;20033;-88
2024/01/21 10:22:25;;;;;;;10.25;6.78;;;3.80;99.90;;;;;;5049662;28;20033;-86
2024/01/21 10:24:58;;;;;;;8.70;6.20;;;3.90;99.90;;;;;;5046150;28;20037;-87
2024/01/21 10:27:24;;;;;;;10.55;6.40;;;4.00;99.90;;;;;;5049953;28;20031;-87
2024/01/21 10:29:49;;;;;;;13.40;6.80;;;3.90;99.90;;;;;;5049857;28;20124;-86
2024/01/21 10:32:17;;;;;;;11.07;6.70;;;4.50;99.90;;;;;;5050113;28;20036;-86
2024/01/21 10:34:49;;;;;;;15.57;6.90;;;3.90;99.90;;;;;;5048855;28;20043;-86
2024/01/21 10:37:15;;;;;;;10.25;6.95;;;3.90;99.90;;;;;;5052856;28;20029;-88
2024/01/21 10:39:44;;;;;;;9.40;6.47;;;4.00;99.90;;;;;;5050800;28;20106;-87
2024/01/21 10:42:12;;;;;;;9.57;6.18;;;5.30;99.90;;;;;;5049134;28;20068;-85
2024/01/21 10:44:38;;;;;;;9.05;6.68;;;4.00;99.90;;;;;;5049309;28;20420;-87
2024/01/21 10:47:06;;;;;;;11.10;6.63;;;4.00;99.90;;;;;;5050968;28;20037;-85
2024/01/21 10:49:33;;;;;;;9.07;6.88;;;4.80;99.90;;;;;;5047724;28;20029;-86
2024/01/21 10:51:58;;;;;;;10.10;7.13;;;4.10;99.90;;;;;;5048924;28;20469;-86
2024/01/21 10:54:28;;;;;;;9.23;6.20;;;4.10;99.90;;;;;;5049916;28;20028;-86
2024/01/21 10:56:54;;;;;;;8.93;7.05;;;4.20;99.90;;;;;;5046056;28;20086;-86
2024/01/21 10:59:38;;;;;;;12.90;6.60;;;4.10;99.90;;;;;;5046828;28;20473;-86
2024/01/21 11:02:04;;;;;;;8.35;6.25;;;5.00;99.90;;;;;;5046792;28;20040;-87
2024/01/21 11:04:30;;;;;;;10.32;6.25;;;4.10;99.90;;;;;;5049380;28;20033;-86
2024/01/21 11:07:03;;;;;;;10.95;7.15;;;4.20;99.90;;;;;;5046394;28;20079;-87
2024/01/21 11:09:32;;;;;;;8.93;6.95;;;5.10;99.90;;;;;;5049396;28;20129;-86
2024/01/21 11:11:58;;;;;;;9.15;6.85;;;4.10;99.90;;;;;;5046564;28;20029;-89
2024/01/21 11:14:34;;;;;;;8.80;6.63;;;4.20;99.90;;;;;;5048135;28;20055;-88
2024/01/21 11:17:05;;;;;;;10.90;7.18;;;4.70;99.90;;;;;;5042213;28;20033;-88
2024/01/21 11:19:54;;;;;;;12.32;7.15;;;4.20;99.90;;;;;;5050500;28;20025;-85
2024/01/21 11:22:29;;;;;;;7.90;6.00;;;4.20;99.90;;;;;;5049943;28;20404;-88
2024/01/21 11:24:55;;;;;;;10.10;6.72;;;5.30;99.90;;;;;;5049406;28;20025;-86
2024/01/21 11:27:23;;;;;;;11.40;6.00;;;4.30;99.90;;;;;;5047983;28;20433;-88
2024/01/21 11:29:55;;;;;;;10.98;7.00;;;4.30;99.90;;;;;;5051451;28;20079;-89
2024/01/21 11:32:40;;;;;;;10.25;7.00;;;4.30;99.90;;;;;;5049531;28;20086;-88
2024/01/21 11:35:16;;;;;;;15.48;7.25;;;4.90;99.90;;;;;;5051133;28;20043;-87
2024/01/21 11:37:45;;;;;;;10.02;6.75;;;4.30;99.90;;;;;;5051987;28;20063;-87
2024/01/21 11:40:11;;;;;;;9.55;6.95;;;4.30;99.90;;;;;;5050229;28;20060;-88
2024/01/21 11:42:37;;;;;;;11.70;6.28;;;4.40;99.90;;;;;;5048633;28;20064;-85
2024/01/21 11:45:16;;;;;;;12.50;7.43;;;4.40;99.90;;;;;;5047638;28;20025;-84
2024/01/21 11:47:42;;;;;;;13.48;7.70;;;5.50;99.90;;;;;;5010377;28;20087;-85
2024/01/21 11:50:09;;;;;;;9.85;6.57;;;5.50;99.90;;;;;;5010287;28;20105;-85
2024/01/21 11:52:45;;;;;;;9.45;7.00;;;4.50;99.90;;;;;;5010063;28;20022;-85
2024/01/21 11:55:10;;;;;;;11.77;7.38;;;4.50;99.90;;;;;;5014030;28;20032;-86
2024/01/21 11:57:36;;;;;;;11.48;6.82;;;4.50;99.90;;;;;;5009284;28;20022;-85
2024/01/21 12:00:02;;;;;;;11.15;7.38;;;4.50;99.90;;;;;;5003575;28;20041;-87
2024/01/21 12:02:28;;;;;;;10.30;6.22;;;4.50;99.90;;;;;;4997598;28;20045;-87
2024/01/21 12:04:59;;;;;;;14.32;7.28;;;4.50;99.90;;;;;;5005629;28;20390;-88
2024/01/21 12:07:26;;;;;;;13.43;6.95;;;5.50;99.90;;;;;;5003064;28;20026;-88
2024/01/21 12:09:53;;;;;;;13.63;7.95;;;4.60;99.90;;;;;;5000713;28;20649;-87
2024/01/21 12:12:26;;;;;;;15.05;6.97;;;5.40;99.90;;;;;;5006097;28;20038;-89
2024/01/21 12:14:54;;;;;;;11.32;6.70;;;5.40;99.90;;;;;;4995594;28;20161;-87
2024/01/21 12:17:20;;;;;;;12.43;7.53;;;4.60;99.90;;;;;;5004292;28;20030;-88
2024/01/21 12:19:58;;;;;;;13.23;7.43;;;5.50;99.90;;;;;;5008470;28;20459;-87
2024/01/21 12:22:41;;;;;;;16.98;7.30;;;4.70;99.90;;;;;;5011730;28;20061;-87
2024/01/21 12:25:08;;;;;;;11.70;7.55;;;4.70;99.90;;;;;;5001757;28;20410;-87
2024/01/21 12:27:43;;;;;;;11.40;7.18;;;4.70;99.90;;;;;;5001395;28;20042;-86
2024/01/21 12:30:23;;;;;;;9.15;7.75;;;4.60;99.90;;;;;;4998204;28;20050;-87
2024/01/21 12:32:55;;;;;;;12.40;6.70;;;4.70;99.90;;;;;;5007652;28;20088;-88
2024/01/21 12:35:35;;;;;;;13.18;7.90;;;5.80;99.90;;;;;;5001170;28;20110;-88
2024/01/21 12:38:07;;;;;;;12.95;7.82;;;4.80;99.90;;;;;;5006929;28;20038;-88
2024/01/21 12:40:45;;;;;;;16.35;8.60;;;5.60;99.90;;;;;;5007499;28;20037;-88
2024/01/21 12:43:26;;;;;;;22.25;8.30;;;5.50;99.90;;;;;;5014140;28;20042;-88
2024/01/21 12:45:51;;;;;;;14.07;7.90;;;4.80;99.90;;;;;;5021883;28;20057;-87
2024/01/21 12:48:17;;;;;;;20.52;8.20;;;5.60;99.90;;;;;;5053535;28;20155;-89
2024/01/21 12:50:43;;;;;;;10.13;7.30;;;4.90;99.90;;;;;;5053205;28;20552;-87
2024/01/21 12:53:09;;;;;;;18.15;7.85;;;4.90;99.90;;;;;;5053321;28;20497;-89
2024/01/21 12:55:44;;;;;;;16.88;8.00;;;5.90;99.90;;;;;;5053343;28;20032;-88
2024/01/21 12:58:25;;;;;;;15.30;8.52;;;5.30;99.90;;;;;;5047403;28;20040;-88
2024/01/21 13:00:56;;;;;;;;;;;5.90;99.90;;;;;;5050663;28;20102;-88